sensor_id;sensor_type;location;lat;lon;timestamp;temperature;humidity
41060;DHT22;26811;53.160;8.202;2023-06-14T00:00:40;16.90;93.20
41060;DHT22;26811;53.160;8.202;2023-06-14T00:05:41;16.80;93.50
41060;DHT22;26811;53.160;8.202;2023-06-14T00:10:43;16.80;94.00
41060;DHT22;26811;53.160;8.202;2023-06-14T00:15:44;16.80;94.30
41060;DHT22;26811;53.160;8.202;2023-06-14T00:20:45;16.80;94.50
41060;DHT22;26811;53.160;8.202;2023-06-14T00:25:47;16.70;94.70
41060;DHT22;26811;53.160;8.202;2023-06-14T00:30:48;16.70;95.10
41060;DHT22;26811;53.160;8.202;2023-06-14T00:35:48;16.60;95.40
41060;DHT22;26811;53.160;8.202;2023-06-14T00:40:49;16.50;95.80
41060;DHT22;26811;53.160;8.202;2023-06-14T00:45:49;16.40;96.30
41060;DHT22;26811;53.160;8.202;2023-06-14T00:50:51;16.40;96.70
41060;DHT22;26811;53.160;8.202;2023-06-14T00:55:53;16.30;97.20
41060;DHT22;26811;53.160;8.202;2023-06-14T01:00:53;16.20;97.50
41060;DHT22;26811;53.160;8.202;2023-06-14T01:11:32;16.00;98.90
41060;DHT22;26811;53.160;8.202;2023-06-14T01:16:33;15.90;99.30
41060;DHT22;26811;53.160;8.202;2023-06-14T01:21:36;15.90;99.90
41060;DHT22;26811;53.160;8.202;2023-06-14T01:26:42;15.80;99.90
41060;DHT22;26811;53.160;8.202;2023-06-14T01:31:46;15.70;99.90
41060;DHT22;26811;53.160;8.202;2023-06-14T01:36:48;15.70;99.90
41060;DHT22;26811;53.160;8.202;2023-06-14T01:41:50;15.70;99.90
41060;DHT22;26811;53.160;8.202;2023-06-14T01:46:52;15.60;99.90
41060;DHT22;26811;53.160;8.202;2023-06-14T01:51:52;15.60;99.90
41060;DHT22;26811;53.160;8.202;2023-06-14T01:56:53;15.50;99.90
41060;DHT22;26811;53.160;8.202;2023-06-14T02:01:54;15.40;99.90
41060;DHT22;26811;53.160;8.202;2023-06-14T02:06:54;15.40;99.90
41060;DHT22;26811;53.160;8.202;2023-06-14T02:11:55;15.40;99.90
41060;DHT22;26811;53.160;8.202;2023-06-14T02:16:55;15.30;99.90
41060;DHT22;26811;53.160;8.202;2023-06-14T02:21:56;15.30;99.90
41060;DHT22;26811;53.160;8.202;2023-06-14T02:26:56;15.20;99.90
41060;DHT22;26811;53.160;8.202;2023-06-14T02:31:57;15.10;99.90
41060;DHT22;26811;53.160;8.202;2023-06-14T02:36:58;15.10;99.90
41060;DHT22;26811;53.160;8.202;2023-06-14T02:41:58;15.00;99.90
41060;DHT22;26811;53.160;8.202;2023-06-14T02:46:59;15.00;99.90
41060;DHT22;26811;53.160;8.202;2023-06-14T02:52:01;14.90;99.90
41060;DHT22;26811;53.160;8.202;2023-06-14T02:57:01;14.90;99.90
41060;DHT22;26811;53.160;8.202;2023-06-14T03:02:02;14.90;99.90
41060;DHT22;26811;53.160;8.202;2023-06-14T03:07:03;14.90;99.90
41060;DHT22;26811;53.160;8.202;2023-06-14T03:12:09;14.90;99.90
41060;DHT22;26811;53.160;8.202;2023-06-14T03:17:10;14.80;99.90
41060;DHT22;26811;53.160;8.202;2023-06-14T03:22:11;14.80;99.90
41060;DHT22;26811;53.160;8.202;2023-06-14T03:27:12;14.70;99.90
41060;DHT22;26811;53.160;8.202;2023-06-14T03:32:12;14.70;99.90
41060;DHT22;26811;53.160;8.202;2023-06-14T03:37:13;14.80;99.90
41060;DHT22;26811;53.160;8.202;2023-06-14T03:42:14;14.70;99.90
41060;DHT22;26811;53.160;8.202;2023-06-14T03:47:14;14.70;99.90
41060;DHT22;26811;53.160;8.202;2023-06-14T03:52:15;14.70;99.90
41060;DHT22;26811;53.160;8.202;2023-06-14T03:57:16;14.70;99.90
41060;DHT22;26811;53.160;8.202;2023-06-14T04:02:17;14.80;99.90
41060;DHT22;26811;53.160;8.202;2023-06-14T04:07:18;14.80;99.90
41060;DHT22;26811;53.160;8.202;2023-06-14T04:12:21;14.90;99.90
41060;DHT22;26811;53.160;8.202;2023-06-14T04:17:22;14.90;99.90
41060;DHT22;26811;53.160;8.202;2023-06-14T04:22:22;15.00;99.90
41060;DHT22;26811;53.160;8.202;2023-06-14T04:27:23;15.70;99.90
41060;DHT22;26811;53.160;8.202;2023-06-14T04:32:26;16.70;99.90
41060;DHT22;26811;53.160;8.202;2023-06-14T04:37:27;17.50;99.90
41060;DHT22;26811;53.160;8.202;2023-06-14T04:42:28;18.00;99.90
41060;DHT22;26811;53.160;8.202;2023-06-14T04:47:31;18.00;99.90
41060;DHT22;26811;53.160;8.202;2023-06-14T04:52:32;17.80;99.90
41060;DHT22;26811;53.160;8.202;2023-06-14T04:57:33;17.80;99.90
41060;DHT22;26811;53.160;8.202;2023-06-14T05:02:33;17.90;99.90
41060;DHT22;26811;53.160;8.202;2023-06-14T05:07:35;18.10;99.90
41060;DHT22;26811;53.160;8.202;2023-06-14T05:12:36;18.30;99.90
41060;DHT22;26811;53.160;8.202;2023-06-14T05:17:37;18.40;99.90
41060;DHT22;26811;53.160;8.202;2023-06-14T05:22:38;18.50;99.90
41060;DHT22;26811;53.160;8.202;2023-06-14T05:27:39;19.00;99.90
41060;DHT22;26811;53.160;8.202;2023-06-14T05:32:42;18.80;99.90
41060;DHT22;26811;53.160;8.202;2023-06-14T05:37:42;18.40;99.90
41060;DHT22;26811;53.160;8.202;2023-06-14T05:42:43;18.50;99.90
41060;DHT22;26811;53.160;8.202;2023-06-14T05:47:44;18.50;99.90
41060;DHT22;26811;53.160;8.202;2023-06-14T05:52:44;18.50;99.90
41060;DHT22;26811;53.160;8.202;2023-06-14T05:57:45;19.10;99.90
41060;DHT22;26811;53.160;8.202;2023-06-14T06:02:49;19.90;99.90
41060;DHT22;26811;53.160;8.202;2023-06-14T06:07:50;19.80;99.90
41060;DHT22;26811;53.160;8.202;2023-06-14T06:12:50;19.30;99.90
41060;DHT22;26811;53.160;8.202;2023-06-14T06:17:52;18.90;99.90
41060;DHT22;26811;53.160;8.202;2023-06-14T06:22:53;18.80;99.90
41060;DHT22;26811;53.160;8.202;2023-06-14T06:27:54;18.90;99.90
41060;DHT22;26811;53.160;8.202;2023-06-14T06:32:56;19.30;99.90
41060;DHT22;26811;53.160;8.202;2023-06-14T06:37:56;19.20;99.90
41060;DHT22;26811;53.160;8.202;2023-06-14T06:42:57;19.30;99.90
41060;DHT22;26811;53.160;8.202;2023-06-14T06:47:58;19.30;99.90
41060;DHT22;26811;53.160;8.202;2023-06-14T06:52:58;19.90;99.90
41060;DHT22;26811;53.160;8.202;2023-06-14T06:57:59;20.10;98.50
41060;DHT22;26811;53.160;8.202;2023-06-14T07:03:00;20.70;97.80
41060;DHT22;26811;53.160;8.202;2023-06-14T07:08:01;21.20;96.90
41060;DHT22;26811;53.160;8.202;2023-06-14T07:13:03;21.40;95.30
41060;DHT22;26811;53.160;8.202;2023-06-14T07:18:04;21.70;94.10
41060;DHT22;26811;53.160;8.202;2023-06-14T07:23:07;22.30;94.10
41060;DHT22;26811;53.160;8.202;2023-06-14T07:28:08;22.80;93.00
41060;DHT22;26811;53.160;8.202;2023-06-14T07:33:08;23.30;92.90
41060;DHT22;26811;53.160;8.202;2023-06-14T07:38:09;23.90;92.00
41060;DHT22;26811;53.160;8.202;2023-06-14T07:43:09;23.90;90.20
41060;DHT22;26811;53.160;8.202;2023-06-14T07:48:10;23.60;90.90
41060;DHT22;26811;53.160;8.202;2023-06-14T07:53:10;23.70;90.40
41060;DHT22;26811;53.160;8.202;2023-06-14T07:58:12;23.70;91.00
41060;DHT22;26811;53.160;8.202;2023-06-14T08:03:12;23.90;89.40
41060;DHT22;26811;53.160;8.202;2023-06-14T08:08:13;24.10;87.60
41060;DHT22;26811;53.160;8.202;2023-06-14T08:13:13;24.20;86.70
41060;DHT22;26811;53.160;8.202;2023-06-14T08:18:14;23.90;84.90
41060;DHT22;26811;53.160;8.202;2023-06-14T08:23:15;23.30;87.50
41060;DHT22;26811;53.160;8.202;2023-06-14T08:28:19;23.50;84.90
41060;DHT22;26811;53.160;8.202;2023-06-14T08:33:20;23.90;85.90
41060;DHT22;26811;53.160;8.202;2023-06-14T08:38:20;24.30;84.30
41060;DHT22;26811;53.160;8.202;2023-06-14T08:43:21;24.60;84.40
41060;DHT22;26811;53.160;8.202;2023-06-14T08:48:23;24.60;82.60
41060;DHT22;26811;53.160;8.202;2023-06-14T08:53:26;24.70;86.00
41060;DHT22;26811;53.160;8.202;2023-06-14T08:58:28;25.00;82.30
41060;DHT22;26811;53.160;8.202;2023-06-14T09:03:34;25.00;82.00
41060;DHT22;26811;53.160;8.202;2023-06-14T09:08:35;24.90;82.00
41060;DHT22;26811;53.160;8.202;2023-06-14T09:13:36;24.60;81.70
41060;DHT22;26811;53.160;8.202;2023-06-14T09:18:38;25.00;82.40
41060;DHT22;26811;53.160;8.202;2023-06-14T09:23:40;25.20;81.00
41060;DHT22;26811;53.160;8.202;2023-06-14T09:28:45;25.10;80.00
41060;DHT22;26811;53.160;8.202;2023-06-14T09:33:48;24.20;80.30
41060;DHT22;26811;53.160;8.202;2023-06-14T09:39:07;23.90;82.40
41060;DHT22;26811;53.160;8.202;2023-06-14T09:44:10;24.00;82.50
41060;DHT22;26811;53.160;8.202;2023-06-14T09:49:11;24.40;83.50
41060;DHT22;26811;53.160;8.202;2023-06-14T09:54:16;24.80;82.40
41060;DHT22;26811;53.160;8.202;2023-06-14T09:59:20;25.30;86.20
41060;DHT22;26811;53.160;8.202;2023-06-14T10:04:30;25.60;79.10
41060;DHT22;26811;53.160;8.202;2023-06-14T10:09:32;25.30;80.10
41060;DHT22;26811;53.160;8.202;2023-06-14T10:14:34;25.10;79.70
41060;DHT22;26811;53.160;8.202;2023-06-14T10:19:47;24.90;81.80
41060;DHT22;26811;53.160;8.202;2023-06-14T10:24:51;25.20;79.20
41060;DHT22;26811;53.160;8.202;2023-06-14T10:34:58;25.20;80.80
41060;DHT22;26811;53.160;8.202;2023-06-14T10:39:59;25.50;78.60
41060;DHT22;26811;53.160;8.202;2023-06-14T10:45:00;25.40;77.20
41060;DHT22;26811;53.160;8.202;2023-06-14T10:55:03;25.00;78.30
41060;DHT22;26811;53.160;8.202;2023-06-14T11:00:07;25.10;81.80
41060;DHT22;26811;53.160;8.202;2023-06-14T11:05:24;25.70;78.90
41060;DHT22;26811;53.160;8.202;2023-06-14T11:10:39;25.80;78.40
41060;DHT22;26811;53.160;8.202;2023-06-14T11:15:47;25.90;76.90
41060;DHT22;26811;53.160;8.202;2023-06-14T11:20:48;25.60;76.80
41060;DHT22;26811;53.160;8.202;2023-06-14T11:25:52;25.60;77.80
41060;DHT22;26811;53.160;8.202;2023-06-14T11:31:03;25.50;77.40
41060;DHT22;26811;53.160;8.202;2023-06-14T11:36:06;25.70;77.50
41060;DHT22;26811;53.160;8.202;2023-06-14T11:41:08;25.40;77.50
41060;DHT22;26811;53.160;8.202;2023-06-14T11:46:13;25.20;77.30
41060;DHT22;26811;53.160;8.202;2023-06-14T11:51:15;25.50;78.40
41060;DHT22;26811;53.160;8.202;2023-06-14T11:56:16;26.10;76.20
41060;DHT22;26811;53.160;8.202;2023-06-14T12:01:17;26.20;75.80
41060;DHT22;26811;53.160;8.202;2023-06-14T12:06:26;26.30;75.60
41060;DHT22;26811;53.160;8.202;2023-06-14T12:11:35;26.20;76.40
41060;DHT22;26811;53.160;8.202;2023-06-14T12:16:39;26.40;74.40
41060;DHT22;26811;53.160;8.202;2023-06-14T12:21:40;26.40;74.20
41060;DHT22;26811;53.160;8.202;2023-06-14T12:26:41;26.50;77.70
41060;DHT22;26811;53.160;8.202;2023-06-14T12:31:42;26.90;74.20
41060;DHT22;26811;53.160;8.202;2023-06-14T12:36:42;26.50;74.10
41060;DHT22;26811;53.160;8.202;2023-06-14T12:41:45;26.30;72.90
41060;DHT22;26811;53.160;8.202;2023-06-14T12:46:45;26.50;73.10
41060;DHT22;26811;53.160;8.202;2023-06-14T12:51:46;26.40;73.50
41060;DHT22;26811;53.160;8.202;2023-06-14T12:56:47;26.00;73.00
41060;DHT22;26811;53.160;8.202;2023-06-14T13:01:48;25.30;74.60
41060;DHT22;26811;53.160;8.202;2023-06-14T13:06:50;25.40;74.80
41060;DHT22;26811;53.160;8.202;2023-06-14T13:11:51;25.60;75.20
41060;DHT22;26811;53.160;8.202;2023-06-14T13:16:52;25.60;73.60
41060;DHT22;26811;53.160;8.202;2023-06-14T13:21:53;25.20;74.60
41060;DHT22;26811;53.160;8.202;2023-06-14T13:26:53;25.00;75.80
41060;DHT22;26811;53.160;8.202;2023-06-14T13:31:54;24.70;76.70
41060;DHT22;26811;53.160;8.202;2023-06-14T13:36:55;25.00;76.00
41060;DHT22;26811;53.160;8.202;2023-06-14T13:41:56;25.50;75.10
41060;DHT22;26811;53.160;8.202;2023-06-14T13:46:57;26.10;74.60
41060;DHT22;26811;53.160;8.202;2023-06-14T13:51:57;26.50;74.10
41060;DHT22;26811;53.160;8.202;2023-06-14T13:56:58;26.20;75.00
41060;DHT22;26811;53.160;8.202;2023-06-14T14:01:58;26.10;75.00
41060;DHT22;26811;53.160;8.202;2023-06-14T14:06:59;26.60;76.50
41060;DHT22;26811;53.160;8.202;2023-06-14T14:12:00;26.70;75.80
41060;DHT22;26811;53.160;8.202;2023-06-14T14:17:02;26.30;76.20
41060;DHT22;26811;53.160;8.202;2023-06-14T14:22:03;25.80;75.40
41060;DHT22;26811;53.160;8.202;2023-06-14T14:27:03;25.60;78.40
41060;DHT22;26811;53.160;8.202;2023-06-14T14:32:04;25.50;77.50
41060;DHT22;26811;53.160;8.202;2023-06-14T14:37:05;25.60;77.30
41060;DHT22;26811;53.160;8.202;2023-06-14T14:42:06;25.70;76.30
41060;DHT22;26811;53.160;8.202;2023-06-14T14:47:08;26.10;76.70
41060;DHT22;26811;53.160;8.202;2023-06-14T14:52:08;26.00;75.80
41060;DHT22;26811;53.160;8.202;2023-06-14T14:57:09;25.80;77.00
41060;DHT22;26811;53.160;8.202;2023-06-14T15:02:11;25.50;76.10
41060;DHT22;26811;53.160;8.202;2023-06-14T15:07:12;25.00;76.20
41060;DHT22;26811;53.160;8.202;2023-06-14T15:12:12;24.70;77.70
41060;DHT22;26811;53.160;8.202;2023-06-14T15:17:54;24.50;78.40
41060;DHT22;26811;53.160;8.202;2023-06-14T15:23:16;24.40;78.20
41060;DHT22;26811;53.160;8.202;2023-06-14T15:28:36;24.40;80.10
41060;DHT22;26811;53.160;8.202;2023-06-14T15:33:37;24.30;79.60
41060;DHT22;26811;53.160;8.202;2023-06-14T15:38:37;24.60;77.20
41060;DHT22;26811;53.160;8.202;2023-06-14T15:43:38;24.90;79.30
41060;DHT22;26811;53.160;8.202;2023-06-14T15:48:39;25.10;75.80
41060;DHT22;26811;53.160;8.202;2023-06-14T15:53:40;25.20;76.20
41060;DHT22;26811;53.160;8.202;2023-06-14T15:58:41;25.20;77.20
41060;DHT22;26811;53.160;8.202;2023-06-14T16:03:46;25.30;75.10
41060;DHT22;26811;53.160;8.202;2023-06-14T16:08:47;25.50;73.90
41060;DHT22;26811;53.160;8.202;2023-06-14T16:13:51;25.70;74.60
41060;DHT22;26811;53.160;8.202;2023-06-14T16:18:52;26.00;73.40
41060;DHT22;26811;53.160;8.202;2023-06-14T16:23:53;26.10;74.10
41060;DHT22;26811;53.160;8.202;2023-06-14T16:28:55;25.90;73.00
41060;DHT22;26811;53.160;8.202;2023-06-14T16:33:56;25.50;76.80
41060;DHT22;26811;53.160;8.202;2023-06-14T16:39:06;25.10;76.20
41060;DHT22;26811;53.160;8.202;2023-06-14T16:44:42;24.70;77.10
41060;DHT22;26811;53.160;8.202;2023-06-14T16:55:27;24.10;78.80
41060;DHT22;26811;53.160;8.202;2023-06-14T17:06:45;23.60;80.40
41060;DHT22;26811;53.160;8.202;2023-06-14T17:11:45;23.50;80.60
41060;DHT22;26811;53.160;8.202;2023-06-14T17:16:47;23.80;80.90
41060;DHT22;26811;53.160;8.202;2023-06-14T17:21:48;24.00;79.50
41060;DHT22;26811;53.160;8.202;2023-06-14T17:26:58;24.30;79.90
41060;DHT22;26811;53.160;8.202;2023-06-14T17:32:05;24.40;77.70
41060;DHT22;26811;53.160;8.202;2023-06-14T17:37:09;24.40;79.00
41060;DHT22;26811;53.160;8.202;2023-06-14T18:00:25;23.80;91.00
41060;DHT22;26811;53.160;8.202;2023-06-14T18:05:29;23.60;91.60
41060;DHT22;26811;53.160;8.202;2023-06-14T18:10:31;23.40;92.80
41060;DHT22;26811;53.160;8.202;2023-06-14T18:15:32;23.20;93.60
41060;DHT22;26811;53.160;8.202;2023-06-14T18:20:37;22.90;94.20
41060;DHT22;26811;53.160;8.202;2023-06-14T18:25:37;22.70;94.40
41060;DHT22;26811;53.160;8.202;2023-06-14T18:30:38;22.50;95.10
41060;DHT22;26811;53.160;8.202;2023-06-14T18:35:38;22.30;95.60
41060;DHT22;26811;53.160;8.202;2023-06-14T18:40:39;22.10;96.00
41060;DHT22;26811;53.160;8.202;2023-06-14T18:45:39;22.00;96.60
41060;DHT22;26811;53.160;8.202;2023-06-14T18:50:40;21.90;97.30
41060;DHT22;26811;53.160;8.202;2023-06-14T18:55:41;21.80;97.60
41060;DHT22;26811;53.160;8.202;2023-06-14T19:00:45;21.80;98.20
41060;DHT22;26811;53.160;8.202;2023-06-14T19:05:50;21.70;98.70
41060;DHT22;26811;53.160;8.202;2023-06-14T19:11:00;21.60;99.00
41060;DHT22;26811;53.160;8.202;2023-06-14T19:16:07;21.50;99.20
41060;DHT22;26811;53.160;8.202;2023-06-14T19:21:14;21.40;99.60
41060;DHT22;26811;53.160;8.202;2023-06-14T19:26:21;21.40;99.80
41060;DHT22;26811;53.160;8.202;2023-06-14T19:31:34;21.30;99.90
41060;DHT22;26811;53.160;8.202;2023-06-14T19:37:10;21.30;99.90
41060;DHT22;26811;53.160;8.202;2023-06-14T19:42:55;21.20;99.90
41060;DHT22;26811;53.160;8.202;2023-06-14T19:48:01;21.10;99.90
41060;DHT22;26811;53.160;8.202;2023-06-14T19:53:28;21.00;99.90
41060;DHT22;26811;53.160;8.202;2023-06-14T19:58:45;20.80;99.90
41060;DHT22;26811;53.160;8.202;2023-06-14T20:04:09;20.70;99.90
41060;DHT22;26811;53.160;8.202;2023-06-14T20:09:45;20.60;99.90
41060;DHT22;26811;53.160;8.202;2023-06-14T20:14:56;20.50;99.90
41060;DHT22;26811;53.160;8.202;2023-06-14T20:25:26;20.30;99.90
41060;DHT22;26811;53.160;8.202;2023-06-14T20:30:41;20.20;99.90
41060;DHT22;26811;53.160;8.202;2023-06-14T20:35:43;20.10;99.90
41060;DHT22;26811;53.160;8.202;2023-06-14T20:40:46;20.00;99.90
41060;DHT22;26811;53.160;8.202;2023-06-14T20:45:55;19.90;99.90
41060;DHT22;26811;53.160;8.202;2023-06-14T20:50:59;19.90;99.90
41060;DHT22;26811;53.160;8.202;2023-06-14T20:56:01;19.80;99.90
41060;DHT22;26811;53.160;8.202;2023-06-14T21:01:01;19.70;99.90
41060;DHT22;26811;53.160;8.202;2023-06-14T21:06:02;19.60;99.90
41060;DHT22;26811;53.160;8.202;2023-06-14T21:11:05;19.50;99.90
41060;DHT22;26811;53.160;8.202;2023-06-14T21:16:07;19.40;99.90
41060;DHT22;26811;53.160;8.202;2023-06-14T21:21:07;19.20;99.90
41060;DHT22;26811;53.160;8.202;2023-06-14T21:26:08;19.20;99.90
41060;DHT22;26811;53.160;8.202;2023-06-14T21:31:13;19.00;99.90
41060;DHT22;26811;53.160;8.202;2023-06-14T21:36:14;18.90;99.90
41060;DHT22;26811;53.160;8.202;2023-06-14T21:41:15;18.80;99.90
41060;DHT22;26811;53.160;8.202;2023-06-14T21:46:18;18.70;99.90
41060;DHT22;26811;53.160;8.202;2023-06-14T21:51:18;18.60;99.90
41060;DHT22;26811;53.160;8.202;2023-06-14T21:56:19;18.50;99.90
41060;DHT22;26811;53.160;8.202;2023-06-14T22:01:19;18.30;99.90
41060;DHT22;26811;53.160;8.202;2023-06-14T22:06:20;18.30;99.90
41060;DHT22;26811;53.160;8.202;2023-06-14T22:11:21;18.10;99.90
41060;DHT22;26811;53.160;8.202;2023-06-14T22:16:21;18.00;99.90
41060;DHT22;26811;53.160;8.202;2023-06-14T22:21:23;17.90;99.90
41060;DHT22;26811;53.160;8.202;2023-06-14T22:26:24;17.80;99.90
41060;DHT22;26811;53.160;8.202;2023-06-14T22:31:26;17.60;99.90
41060;DHT22;26811;53.160;8.202;2023-06-14T22:36:27;17.40;99.90
41060;DHT22;26811;53.160;8.202;2023-06-14T22:41:30;17.40;99.90
41060;DHT22;26811;53.160;8.202;2023-06-14T22:46:32;17.30;99.90
41060;DHT22;26811;53.160;8.202;2023-06-14T22:51:32;17.20;99.90
41060;DHT22;26811;53.160;8.202;2023-06-14T22:56:33;17.10;99.90
41060;DHT22;26811;53.160;8.202;2023-06-14T23:01:34;17.00;99.90
41060;DHT22;26811;53.160;8.202;2023-06-14T23:06:37;16.90;99.90
41060;DHT22;26811;53.160;8.202;2023-06-14T23:11:38;16.80;99.90
41060;DHT22;26811;53.160;8.202;2023-06-14T23:16:38;16.70;99.90
41060;DHT22;26811;53.160;8.202;2023-06-14T23:21:39;16.70;99.90
41060;DHT22;26811;53.160;8.202;2023-06-14T23:26:41;16.60;99.90
41060;DHT22;26811;53.160;8.202;2023-06-14T23:31:42;16.50;99.90
41060;DHT22;26811;53.160;8.202;2023-06-14T23:36:45;16.50;99.90
41060;DHT22;26811;53.160;8.202;2023-06-14T23:41:47;16.30;99.90
41060;DHT22;26811;53.160;8.202;2023-06-14T23:46:53;16.20;99.90
41060;DHT22;26811;53.160;8.202;2023-06-14T23:51:56;16.10;99.90
41060;DHT22;26811;53.160;8.202;2023-06-14T23:56:57;16.00;99.90
